Time;durP1;ratioP1;P1;durP2;ratioP2;P2;SDS_P1;SDS_P2;PMS_P1;PMS_P2;Temp;Humidity;BMP_temperature;BMP_pressure;BME280_temperature;BME280_humidity;BME280_pressure;Samples;Min_cycle;Max_cycle;Signal;HPM_P1;HPM_P2
2021/07/30 00:00:29;;;;;;;21.88;17.67;;;;;;;21.24;74.92;98782.56;5092152;28;20028;-51
2021/07/30 00:02:55;;;;;;;26.20;17.25;;;;;;;21.26;74.48;98780.47;5091290;28;20020;-51
2021/07/30 00:05:20;;;;;;;21.02;16.60;;;;;;;21.30;74.80;98780.84;5091730;28;20475;-50
2021/07/30 00:07:46;;;;;;;19.83;15.50;;;;;;;21.29;74.57;98777.31;5091793;28;20024;-51
2021/07/30 00:10:12;;;;;;;23.08;16.13;;;;;;;21.37;74.32;98787.09;5091763;28;20094;-49
2021/07/30 00:12:38;;;;;;;23.75;16.02;;;;;;;21.40;73.84;98780.34;5091020;28;20051;-51
2021/07/30 00:15:06;;;;;;;21.25;15.60;;;;;;;21.42;74.00;98781.81;5090868;28;20081;-53
2021/07/30 00:17:33;;;;;;;20.42;14.95;;;;;;;21.41;74.20;98771.13;5091354;28;20083;-48
2021/07/30 00:20:02;;;;;;;20.70;15.50;;;;;;;21.45;73.71;98775.06;5091515;28;20043;-49
2021/07/30 00:22:28;;;;;;;18.55;15.15;;;;;;;21.44;72.81;98770.69;5090917;28;20047;-47
2021/07/30 00:24:54;;;;;;;20.40;15.43;;;;;;;21.48;73.25;98771.94;5090982;28;20027;-51
2021/07/30 00:27:19;;;;;;;18.42;15.55;;;;;;;21.51;73.71;98768.75;5091443;28;20020;-47
2021/07/30 00:29:45;;;;;;;19.27;15.18;;;;;;;21.36;73.88;98747.31;5091166;28;20028;-49
2021/07/30 00:32:10;;;;;;;18.77;15.32;;;;;;;21.51;73.50;98776.94;5091495;28;20024;-48
2021/07/30 00:34:36;;;;;;;21.55;15.10;;;;;;;21.51;73.88;98772.31;5091151;28;20082;-51
2021/07/30 00:37:01;;;;;;;22.95;15.80;;;;;;;21.52;73.75;98775.88;5091168;28;20039;-49
2021/07/30 00:39:27;;;;;;;21.27;14.93;;;;;;;21.51;73.68;98774.22;5090859;28;20028;-52
2021/07/30 00:41:52;;;;;;;18.52;14.95;;;;;;;21.52;73.72;98773.16;5090365;28;20028;-49
2021/07/30 00:44:18;;;;;;;17.80;13.85;;;;;;;21.49;72.96;98770.88;5090544;28;20024;-49
2021/07/30 00:46:45;;;;;;;16.30;13.90;;;;;;;21.49;74.02;98773.59;5090688;28;20032;-50
2021/07/30 00:49:11;;;;;;;19.70;13.77;;;;;;;21.47;73.99;98775.72;5073043;28;20111;-52
2021/07/30 00:51:38;;;;;;;15.85;12.73;;;;;;;21.45;73.45;98781.38;5090400;28;20135;-54
2021/07/30 00:54:04;;;;;;;17.58;13.57;;;;;;;21.45;73.60;98783.25;5090737;28;20027;-50
2021/07/30 00:56:30;;;;;;;17.98;13.02;;;;;;;21.43;73.32;98782.63;5090957;28;20060;-51
2021/07/30 00:58:57;;;;;;;18.67;12.88;;;;;;;21.42;73.74;98770.94;5090602;28;20118;-51
2021/07/30 01:01:24;;;;;;;13.85;11.85;;;;;;;21.41;74.19;98773.84;5089906;28;20036;-50
2021/07/30 01:03:51;;;;;;;15.07;12.32;;;;;;;21.38;74.33;98775.16;5090587;28;20051;-54
2021/07/30 01:06:18;;;;;;;16.80;12.38;;;;;;;21.41;73.96;98777.44;5091368;28;20024;-54
2021/07/30 01:08:44;;;;;;;20.23;11.95;;;;;;;21.35;73.47;98770.97;5090014;28;20475;-48
2021/07/30 01:11:11;;;;;;;16.90;11.85;;;;;;;21.34;74.10;98773.91;5090310;28;20130;-49
2021/07/30 01:13:37;;;;;;;18.35;11.95;;;;;;;21.32;73.85;98776.84;5072807;28;20038;-58
2021/07/30 01:16:04;;;;;;;15.68;11.68;;;;;;;21.33;74.01;98777.66;5090703;28;20052;-53
2021/07/30 01:18:30;;;;;;;14.73;12.02;;;;;;;21.31;73.63;98767.03;5071315;28;20143;-52
2021/07/30 01:21:16;;;;;;;15.90;12.15;;;;;;;21.38;73.88;98769.69;5090423;28;20480;-50
2021/07/30 01:23:43;;;;;;;16.42;11.68;;;;;;;21.27;73.79;98770.41;5090662;28;20035;-50
2021/07/30 01:26:08;;;;;;;17.80;11.23;;;;;;;21.25;74.49;98762.47;5090930;28;20039;-52
2021/07/30 01:28:35;;;;;;;16.60;12.18;;;;;;;21.25;74.92;98757.03;5090581;28;20021;-52
2021/07/30 01:31:05;;;;;;;16.48;12.02;;;;;;;21.36;74.34;98766.38;5090058;28;20024;-50
2021/07/30 01:33:30;;;;;;;15.30;11.70;;;;;;;21.33;74.08;98770.34;5072931;28;20119;-47
2021/07/30 01:35:56;;;;;;;13.90;11.65;;;;;;;21.38;73.84;98756.09;5090721;28;20096;-51
2021/07/30 01:38:21;;;;;;;15.50;12.10;;;;;;;21.41;73.58;98757.50;5089777;28;20056;-50
2021/07/30 01:40:47;;;;;;;16.38;12.57;;;;;;;21.44;73.27;98759.78;5090191;28;20039;-48
2021/07/30 01:43:12;;;;;;;13.18;11.80;;;;;;;21.48;73.32;98771.94;5090968;28;20032;-50
2021/07/30 01:45:38;;;;;;;16.15;11.93;;;;;;;21.50;72.80;98754.31;5091064;28;20032;-47
2021/07/30 01:48:04;;;;;;;17.27;12.52;;;;;;;21.39;72.98;98724.25;5089709;28;20024;-48
2021/07/30 01:50:29;;;;;;;16.80;12.13;;;;;;;21.58;72.10;98766.81;5090206;28;20032;-52
2021/07/30 01:52:54;;;;;;;15.10;12.35;;;;;;;21.62;72.30;98768.03;5090308;28;20137;-52
2021/07/30 01:55:20;;;;;;;14.05;11.68;;;;;;;21.59;72.72;98757.59;5094275;28;20032;-53
2021/07/30 01:57:45;;;;;;;16.40;11.80;;;;;;;21.67;72.09;98775.56;5093463;28;20027;-55
2021/07/30 02:00:11;;;;;;;16.83;12.52;;;;;;;21.70;72.05;98780.56;5093935;28;20035;-53
2021/07/30 02:02:37;;;;;;;14.85;12.35;;;;;;;21.72;72.11;98769.47;5094812;28;20519;-50
2021/07/30 02:05:05;;;;;;;14.40;12.32;;;;;;;21.75;71.71;98769.84;5094194;28;20082;-52
2021/07/30 02:07:30;;;;;;;15.60;12.30;;;;;;;21.73;71.51;98761.06;5093750;28;20035;-52
2021/07/30 02:09:58;;;;;;;17.27;12.68;;;;;;;21.86;71.76;98776.44;5093638;28;20031;-53
2021/07/30 02:12:23;;;;;;;16.27;12.05;;;;;;;21.89;71.16;98767.00;5093659;28;20112;-53
2021/07/30 02:14:49;;;;;;;17.02;12.32;;;;;;;21.93;71.75;98763.59;5093519;28;20115;-53
2021/07/30 02:17:14;;;;;;;15.65;12.45;;;;;;;21.98;71.85;98768.38;5092998;28;20402;-52
2021/07/30 02:19:40;;;;;;;22.17;13.32;;;;;;;22.03;71.82;98764.97;5094027;28;20040;-48
2021/07/30 02:22:05;;;;;;;18.45;12.63;;;;;;;22.03;71.50;98760.34;5093874;28;20032;-53
2021/07/30 02:24:31;;;;;;;18.42;12.65;;;;;;;22.05;71.00;98754.69;5093417;28;20424;-49
2021/07/30 02:26:57;;;;;;;15.02;12.30;;;;;;;22.02;71.22;98758.69;5093453;28;20082;-47
2021/07/30 02:29:22;;;;;;;24.60;14.40;;;;;;;22.08;71.04;98762.41;5093679;28;20028;-50
2021/07/30 02:31:48;;;;;;;16.65;12.82;;;;;;;22.12;70.71;98760.88;5093515;28;20433;-51
2021/07/30 02:34:14;;;;;;;17.75;12.55;;;;;;;22.14;70.58;98763.41;5093309;28;20477;-47
2021/07/30 02:36:40;;;;;;;19.02;13.15;;;;;;;22.17;70.73;98761.03;5094021;28;20078;-49
2021/07/30 02:39:05;;;;;;;15.50;12.63;;;;;;;22.23;70.36;98762.88;5093124;28;20035;-49
2021/07/30 02:41:31;;;;;;;19.38;14.18;;;;;;;22.31;70.10;98763.63;5093160;28;20131;-49
2021/07/30 02:43:59;;;;;;;19.15;14.00;;;;;;;22.36;69.53;98761.91;5094190;28;20066;-50
2021/07/30 02:46:25;;;;;;;18.52;14.52;;;;;;;22.43;69.80;98761.84;5092741;28;20531;-48
2021/07/30 02:48:50;;;;;;;23.08;14.52;;;;;;;22.51;69.04;98758.81;5093011;28;20108;-50
2021/07/30 02:51:16;;;;;;;17.35;14.18;;;;;;;22.62;68.60;98756.38;5093045;28;20114;-49
2021/07/30 02:53:42;;;;;;;17.63;14.10;;;;;;;22.73;68.33;98766.53;5093307;28;20060;-50
2021/07/30 02:56:08;;;;;;;20.88;14.85;;;;;;;22.85;67.09;98752.09;5092620;28;20051;-52
2021/07/30 02:58:34;;;;;;;20.30;14.98;;;;;;;23.00;66.87;98755.25;5092783;28;20031;-51
2021/07/30 03:01:00;;;;;;;17.25;14.25;;;;;;;23.13;66.02;98745.19;5093156;28;20028;-49
2021/07/30 03:03:26;;;;;;;21.70;14.63;;;;;;;23.26;65.39;98742.28;5092597;28;20199;-49
2021/07/30 03:05:52;;;;;;;18.30;14.52;;;;;;;23.42;64.50;98742.69;5092489;28;20475;-53
2021/07/30 03:08:17;;;;;;;20.33;13.75;;;;;;;23.57;65.03;98748.50;5093092;28;20024;-48
2021/07/30 03:10:45;;;;;;;16.38;13.57;;;;;;;23.66;65.38;98743.53;5093363;28;20529;-58
2021/07/30 03:13:11;;;;;;;16.95;13.90;;;;;;;23.82;64.79;98739.25;5092950;28;20073;-52
2021/07/30 03:15:36;;;;;;;21.17;14.98;;;;;;;23.92;65.16;98744.13;5092188;28;20131;-51
2021/07/30 03:18:02;;;;;;;18.30;14.35;;;;;;;24.00;64.05;98749.25;5092633;28;20051;-49
2021/07/30 03:20:27;;;;;;;19.88;14.38;;;;;;;24.12;64.08;98742.97;5092852;28;20051;-49
2021/07/30 03:22:53;;;;;;;15.75;13.75;;;;;;;24.27;62.78;98742.47;5092494;28;20115;-48
2021/07/30 03:25:18;;;;;;;16.95;12.88;;;;;;;24.43;62.75;98749.94;5092306;28;20517;-51
2021/07/30 03:27:44;;;;;;;15.38;13.45;;;;;;;24.63;62.40;98746.78;5092679;28;20119;-57
2021/07/30 03:30:10;;;;;;;18.50;13.02;;;;;;;24.87;60.77;98757.66;5093443;28;20032;-50
2021/07/30 03:32:36;;;;;;;17.42;13.30;;;;;;;25.05;59.27;98747.59;5092426;28;20067;-51
2021/07/30 03:35:01;;;;;;;18.48;14.18;;;;;;;25.28;58.12;98749.34;5091932;28;20052;-52
2021/07/30 03:37:27;;;;;;;17.92;13.05;;;;;;;25.48;59.76;98748.94;5092110;28;20039;-47
2021/07/30 03:39:52;;;;;;;21.05;14.23;;;;;;;25.66;57.61;98738.78;5092436;28;20479;-49
2021/07/30 03:42:18;;;;;;;15.48;13.20;;;;;;;25.86;56.76;98749.25;5092379;28;20024;-52
2021/07/30 03:44:43;;;;;;;16.30;12.93;;;;;;;26.07;56.44;98746.78;5092158;28;20051;-53
2021/07/30 03:47:09;;;;;;;18.67;13.88;;;;;;;26.26;55.60;98757.47;5092003;28;20035;-52
2021/07/30 03:49:34;;;;;;;20.15;14.07;;;;;;;26.45;54.99;98758.03;5092259;28;20130;-51
2021/07/30 03:51:59;;;;;;;17.42;14.00;;;;;;;26.59;54.38;98747.50;5092141;28;20107;-50
2021/07/30 03:54:25;;;;;;;15.75;14.00;;;;;;;26.72;53.90;98760.00;5073351;28;20034;-48
2021/07/30 03:56:50;;;;;;;20.20;15.23;;;;;;;26.77;53.97;98763.63;5091385;28;20032;-49
2021/07/30 03:59:16;;;;;;;16.73;13.98;;;;;;;26.99;53.22;98764.72;5092038;28;20024;-58
2021/07/30 04:01:51;;;;;;;16.20;14.48;;;;;;;27.33;52.83;98762.56;5073800;28;20034;-48
2021/07/30 04:04:17;;;;;;;15.68;13.25;;;;;;;28.01;50.98;98766.69;5091825;28;20088;-59
2021/07/30 04:06:44;;;;;;;16.67;13.90;;;;;;;28.62;49.55;98778.31;5091524;28;20689;-52
2021/07/30 04:09:13;;;;;;;15.40;13.60;;;;;;;29.33;48.31;98782.41;5091220;28;20036;-48
2021/07/30 04:11:40;;;;;;;18.58;13.63;;;;;;;29.82;46.04;98777.47;5091876;28;20060;-46
2021/07/30 04:14:05;;;;;;;16.15;13.52;;;;;;;30.07;44.93;98773.03;5091092;28;20024;-50
2021/07/30 04:16:35;;;;;;;16.40;13.50;;;;;;;30.24;45.08;98777.44;5090600;28;20122;-51
2021/07/30 04:19:02;;;;;;;15.07;13.48;;;;;;;29.97;45.04;98773.03;5091090;28;20036;-52
2021/07/30 04:21:28;;;;;;;19.80;14.18;;;;;;;29.62;46.06;98772.81;5090860;28;20040;-51
2021/07/30 04:23:54;;;;;;;17.92;13.52;;;;;;;29.20;46.49;98781.00;5091514;28;20028;-51
2021/07/30 04:26:19;;;;;;;14.65;13.05;;;;;;;28.82;47.07;98776.78;5072321;28;20173;-53
2021/07/30 04:28:45;;;;;;;18.17;13.98;;;;;;;28.35;48.71;98782.06;5091074;28;20039;-50
2021/07/30 04:31:11;;;;;;;16.10;13.68;;;;;;;27.90;49.84;98775.97;5091456;28;20085;-48
2021/07/30 04:33:37;;;;;;;20.13;14.35;;;;;;;27.53;50.28;98780.38;5091006;28;20138;-52
2021/07/30 04:36:02;;;;;;;17.75;14.07;;;;;;;27.13;51.03;98798.94;5090914;28;20102;-52
2021/07/30 04:38:29;;;;;;;15.85;14.00;;;;;;;26.53;52.48;98762.25;5090945;28;20391;-48
2021/07/30 04:40:54;;;;;;;15.43;13.82;;;;;;;26.34;53.55;98779.00;5090862;28;20032;-50
2021/07/30 04:43:20;;;;;;;17.88;14.75;;;;;;;26.12;53.83;98777.03;5090687;28;20459;-52
2021/07/30 04:45:45;;;;;;;18.95;14.70;;;;;;;25.92;54.26;98772.06;5090807;28;20361;-50
2021/07/30 04:48:10;;;;;;;17.20;14.88;;;;;;;25.78;55.00;98779.78;5090569;28;20523;-53
2021/07/30 04:50:36;;;;;;;17.38;15.05;;;;;;;25.57;55.91;98768.53;5090617;28;20094;-50
2021/07/30 04:53:01;;;;;;;17.95;15.77;;;;;;;25.61;55.98;98783.38;5090496;28;20472;-48
2021/07/30 04:55:27;;;;;;;21.23;16.40;;;;;;;25.56;56.59;98787.94;5091170;28;20032;-51
2021/07/30 04:57:56;;;;;;;18.70;15.82;;;;;;;25.49;56.92;98785.38;5090583;28;20443;-51
2021/07/30 05:00:22;;;;;;;18.58;16.10;;;;;;;25.40;57.14;98768.47;5090598;28;20154;-52
2021/07/30 05:02:50;;;;;;;18.08;15.02;;;;;;;25.47;57.65;98784.78;5090787;28;20024;-47
2021/07/30 05:05:16;;;;;;;19.67;15.15;;;;;;;25.49;57.68;98777.97;5091344;28;20024;-51
2021/07/30 05:07:42;;;;;;;21.13;15.35;;;;;;;25.56;57.04;98794.28;5090999;28;20032;-55
2021/07/30 05:10:09;;;;;;;17.95;14.63;;;;;;;25.55;57.57;98784.34;5090686;28;20066;-51
2021/07/30 05:12:34;;;;;;;19.65;15.43;;;;;;;25.65;56.97;98786.44;5090793;28;20020;-53
2021/07/30 05:14:59;;;;;;;18.92;15.48;;;;;;;25.69;57.06;98782.16;5090847;28;20039;-50
2021/07/30 05:17:25;;;;;;;18.90;15.38;;;;;;;25.74;56.21;98784.97;5090569;28;20043;-49
2021/07/30 05:19:51;;;;;;;19.77;15.75;;;;;;;25.79;56.51;98787.78;5090543;28;20419;-60
2021/07/30 05:22:16;;;;;;;17.02;15.32;;;;;;;25.88;56.13;98790.94;5091128;28;20074;-55
2021/07/30 05:24:41;;;;;;;21.30;15.95;;;;;;;25.90;55.56;98786.03;5091006;28;20046;-52
2021/07/30 05:27:07;;;;;;;20.67;15.68;;;;;;;25.89;55.61;98798.09;5090888;28;20052;-52
2021/07/30 05:29:33;;;;;;;19.27;15.77;;;;;;;25.81;55.20;98795.78;5093123;28;20039;-55
2021/07/30 05:32:00;;;;;;;24.35;16.08;;;;;;;25.72;55.46;98791.78;5094710;28;20240;-51
2021/07/30 05:34:25;;;;;;;19.98;15.48;;;;;;;25.60;56.06;98789.94;5095329;28;20047;-54
2021/07/30 05:36:51;;;;;;;18.00;15.45;;;;;;;25.47;56.33;98784.78;5094856;28;20028;-56
2021/07/30 05:39:17;;;;;;;19.73;16.27;;;;;;;25.44;56.45;98799.78;5094796;28;20027;-53
2021/07/30 05:41:42;;;;;;;24.75;16.10;;;;;;;25.40;57.23;98798.59;5094373;28;20090;-53
2021/07/30 05:44:08;;;;;;;18.58;15.77;;;;;;;25.29;57.60;98803.06;5094867;28;20028;-53
2021/07/30 05:46:36;;;;;;;18.92;15.68;;;;;;;25.22;58.06;98803.25;5094962;28;20383;-53
2021/07/30 05:49:02;;;;;;;19.35;16.05;;;;;;;25.17;58.19;98805.03;5094441;28;20071;-51
2021/07/30 05:51:28;;;;;;;20.27;15.68;;;;;;;25.15;58.75;98807.19;5094162;28;20087;-53
2021/07/30 05:53:53;;;;;;;20.20;15.55;;;;;;;25.05;58.50;98805.91;5094936;28;20387;-52
2021/07/30 05:56:19;;;;;;;21.58;15.40;;;;;;;24.99;59.30;98826.06;5094346;28;20526;-52
2021/07/30 05:58:44;;;;;;;16.90;14.77;;;;;;;24.93;59.96;98832.50;5093948;28;20036;-54
2021/07/30 06:01:13;;;;;;;16.90;13.77;;;;;;;24.86;59.82;98843.59;5094023;28;20028;-51
2021/07/30 06:03:39;;;;;;;16.90;13.93;;;;;;;24.66;60.69;98849.44;5093703;28;20028;-51
2021/07/30 06:06:05;;;;;;;14.40;12.15;;;;;;;24.47;60.42;98837.81;5093798;28;20031;-49
2021/07/30 06:08:31;;;;;;;13.05;11.65;;;;;;;24.31;61.26;98836.63;5094061;28;20035;-51
2021/07/30 06:11:04;;;;;;;16.02;11.68;;;;;;;24.14;61.81;98842.84;5094052;28;20468;-50
2021/07/30 06:13:30;;;;;;;15.57;12.30;;;;;;;23.86;63.03;98838.84;5093318;28;20028;-53
2021/07/30 06:15:55;;;;;;;15.60;12.23;;;;;;;23.57;63.05;98816.00;5088498;28;20040;-51
2021/07/30 06:18:21;;;;;;;15.40;12.07;;;;;;;23.53;63.75;98839.38;5090812;28;20039;-51
2021/07/30 06:20:46;;;;;;;15.43;11.93;;;;;;;23.38;64.56;98835.16;5091832;28;20379;-51
2021/07/30 06:23:11;;;;;;;12.82;11.13;;;;;;;23.21;65.29;98848.63;5091567;28;20455;-54
2021/07/30 06:25:37;;;;;;;13.02;11.57;;;;;;;23.10;65.88;98847.50;5091640;28;20020;-51
2021/07/30 06:28:03;;;;;;;12.38;11.10;;;;;;;23.03;66.13;98850.31;5091649;28;20047;-50
2021/07/30 06:30:29;;;;;;;13.15;11.43;;;;;;;22.88;66.49;98838.94;5091571;28;20463;-55
2021/07/30 06:32:54;;;;;;;15.55;9.90;;;;;;;22.82;66.72;98838.00;5091758;28;20150;-54
2021/07/30 06:35:20;;;;;;;13.00;9.73;;;;;;;22.73;66.85;98832.00;5093475;28;20065;-50
2021/07/30 06:37:46;;;;;;;11.23;9.60;;;;;;;22.51;66.85;98824.28;5093425;28;20100;-54
2021/07/30 06:40:13;;;;;;;12.00;10.18;;;;;;;22.50;67.54;98847.16;5093079;28;20043;-55
2021/07/30 06:42:39;;;;;;;10.13;8.73;;;;;;;22.37;68.18;98839.06;5093822;28;20066;-54
2021/07/30 06:45:06;;;;;;;12.65;9.13;;;;;;;22.29;68.24;98850.28;5093535;28;20051;-53
2021/07/30 06:47:35;;;;;;;12.15;8.70;;;;;;;22.27;68.40;98853.22;5093585;28;20032;-51
2021/07/30 06:50:02;;;;;;;11.40;8.98;;;;;;;22.17;69.15;98848.28;5093827;28;20455;-48
2021/07/30 06:52:28;;;;;;;15.38;9.43;;;;;;;22.10;69.41;98839.34;5093660;28;20032;-51
2021/07/30 06:54:54;;;;;;;11.60;8.88;;;;;;;22.02;70.16;98837.72;5093189;28;20028;-53
2021/07/30 06:57:20;;;;;;;13.15;9.48;;;;;;;21.93;70.54;98823.53;5093110;28;20035;-53
2021/07/30 06:59:47;;;;;;;15.73;10.15;;;;;;;21.78;70.93;98823.06;5093412;28;20049;-53
2021/07/30 07:02:12;;;;;;;11.60;9.93;;;;;;;21.52;72.06;98817.53;5093528;28;20032;-53
2021/07/30 07:04:38;;;;;;;11.88;9.05;;;;;;;21.41;72.59;98820.13;5093043;28;20028;-51
2021/07/30 07:07:05;;;;;;;12.35;10.45;;;;;;;21.31;72.71;98826.06;5092619;28;20115;-54
2021/07/30 07:09:30;;;;;;;16.20;10.98;;;;;;;21.04;73.88;98788.97;5086199;28;20116;-56
2021/07/30 07:11:55;;;;;;;14.48;10.18;;;;;;;21.20;74.65;98819.44;5081129;28;20387;-47
2021/07/30 07:14:21;;;;;;;15.13;11.20;;;;;;;21.22;74.58;98820.06;5092447;28;20516;-48
2021/07/30 07:16:46;;;;;;;14.18;10.70;;;;;;;21.25;74.24;98835.13;5082430;28;20514;-52
2021/07/30 07:19:12;;;;;;;15.25;11.10;;;;;;;21.24;74.26;98834.28;5072751;28;20427;-49
2021/07/30 07:21:38;;;;;;;15.00;10.43;;;;;;;21.23;74.76;98833.44;5075242;28;20079;-52
2021/07/30 07:24:05;;;;;;;13.93;11.13;;;;;;;21.25;74.97;98824.22;5092550;28;20055;-50
2021/07/30 07:26:31;;;;;;;14.48;10.90;;;;;;;21.23;74.83;98833.44;5091354;28;20028;-51
2021/07/30 07:28:57;;;;;;;15.48;10.95;;;;;;;21.19;74.75;98828.66;5082484;28;20118;-49
2021/07/30 07:31:22;;;;;;;15.65;11.77;;;;;;;21.17;75.35;98819.88;5088239;28;20471;-53
2021/07/30 07:33:48;;;;;;;14.25;10.95;;;;;;;21.23;75.12;98827.19;5090674;28;20031;-53
2021/07/30 07:36:14;;;;;;;13.35;11.18;;;;;;;21.19;74.81;98809.59;5074191;28;20043;-52
2021/07/30 07:38:39;;;;;;;13.05;11.20;;;;;;;21.39;74.73;98831.25;5092270;28;20046;-49
2021/07/30 07:41:05;;;;;;;13.25;11.23;;;;;;;21.50;74.80;98821.56;5092170;28;20032;-47
2021/07/30 07:43:30;;;;;;;13.70;10.57;;;;;;;21.62;73.62;98822.50;5092745;28;20099;-52
2021/07/30 07:45:55;;;;;;;13.20;11.25;;;;;;;21.77;73.58;98819.47;5074317;28;20111;-48
2021/07/30 07:48:21;;;;;;;11.35;9.95;;;;;;;21.92;73.46;98821.88;5091362;28;20103;-53
2021/07/30 07:50:46;;;;;;;12.65;10.10;;;;;;;22.18;73.57;98825.41;5091644;28;20032;-51
2021/07/30 07:53:17;;;;;;;12.50;10.15;;;;;;;22.46;71.63;98828.69;5077253;28;20028;-52
2021/07/30 07:55:43;;;;;;;15.23;10.82;;;;;;;22.68;70.56;98817.38;5092147;28;20036;-51
2021/07/30 07:58:09;;;;;;;11.32;10.00;;;;;;;22.91;69.30;98820.22;5091495;28;20032;-50
2021/07/30 08:00:35;;;;;;;13.73;9.75;;;;;;;23.15;68.11;98819.50;5092414;28;20031;-49
2021/07/30 08:03:01;;;;;;;17.35;13.00;;;;;;;23.49;67.87;98811.69;5091923;28;20356;-49
2021/07/30 08:05:26;;;;;;;11.98;10.10;;;;;;;23.72;66.75;98808.16;5091740;28;20055;-51
2021/07/30 08:07:51;;;;;;;13.88;10.63;;;;;;;23.88;66.12;98797.59;5091951;28;20028;-48
2021/07/30 08:10:17;;;;;;;11.68;10.23;;;;;;;24.08;65.79;98789.94;5086539;28;20028;-48
2021/07/30 08:12:42;;;;;;;12.07;10.00;;;;;;;24.33;63.95;98788.00;5092151;28;20024;-54
2021/07/30 08:15:08;;;;;;;14.07;10.55;;;;;;;24.59;62.68;98783.06;5091753;28;20046;-54
2021/07/30 08:17:38;;;;;;;11.50;10.02;;;;;;;24.97;62.62;98787.16;5089178;28;20135;-54
2021/07/30 08:20:06;;;;;;;13.38;10.35;;;;;;;25.28;60.66;98792.38;5083336;28;20090;-52
2021/07/30 08:22:31;;;;;;;12.45;9.75;;;;;;;25.53;59.07;98785.72;5085639;28;20028;-57
2021/07/30 08:24:56;;;;;;;13.55;9.30;;;;;;;25.88;57.19;98779.97;5091645;28;20107;-54
2021/07/30 08:27:22;;;;;;;13.07;9.63;;;;;;;26.19;56.01;98785.94;5071470;28;20433;-53
2021/07/30 08:29:47;;;;;;;12.02;8.80;;;;;;;26.44;54.63;98792.84;5071424;28;20464;-51
2021/07/30 08:32:13;;;;;;;10.55;8.57;;;;;;;26.62;52.76;98790.91;5071436;28;20028;-50
2021/07/30 08:34:39;;;;;;;13.02;8.68;;;;;;;26.75;53.33;98792.41;5070832;28;20098;-52
2021/07/30 08:37:08;;;;;;;13.30;9.45;;;;;;;26.94;54.34;98792.94;5074874;28;20456;-52
2021/07/30 08:39:36;;;;;;;14.25;9.63;;;;;;;26.95;52.82;98794.59;5070802;28;20044;-54
2021/07/30 08:42:02;;;;;;;15.23;10.30;;;;;;;26.88;53.38;98774.75;5070861;28;20044;-58
2021/07/30 08:44:28;;;;;;;14.38;10.98;;;;;;;27.03;53.56;98793.31;5083242;28;20039;-54
2021/07/30 08:46:54;;;;;;;14.15;10.55;;;;;;;27.00;52.43;98789.16;5091068;28;20379;-53
2021/07/30 08:49:20;;;;;;;12.35;9.25;;;;;;;26.96;51.95;98788.00;5091014;28;20379;-54
2021/07/30 08:51:50;;;;;;;12.68;9.70;;;;;;;26.97;52.53;98792.41;5091087;28;20085;-54
2021/07/30 08:54:16;;;;;;;15.77;10.13;;;;;;;26.83;53.36;98785.66;5090968;28;20047;-53
2021/07/30 08:56:41;;;;;;;14.50;10.15;;;;;;;26.51;52.85;98774.28;5091176;28;20040;-51
2021/07/30 08:59:08;;;;;;;15.25;10.05;;;;;;;26.34;53.60;98779.81;5090155;28;20034;-52
2021/07/30 09:01:34;;;;;;;20.88;10.32;;;;;;;26.21;54.42;98802.16;5071949;28;20032;-59
2021/07/30 09:04:00;;;;;;;16.25;11.57;;;;;;;26.01;54.99;98797.16;5072191;28;20127;-54
2021/07/30 09:06:26;;;;;;;18.13;10.68;;;;;;;25.76;54.99;98785.53;5090958;28;20031;-50
2021/07/30 09:08:54;;;;;;;19.35;11.40;;;;;;;25.72;56.29;98791.78;5090382;28;20020;-51
2021/07/30 09:11:40;;;;;;;14.63;10.40;;;;;;;25.77;56.27;98791.84;5090558;28;20043;-53
2021/07/30 09:14:07;;;;;;;16.80;11.57;;;;;;;25.58;57.70;98796.75;5090288;28;20464;-55
2021/07/30 09:16:47;;;;;;;14.50;11.23;;;;;;;25.68;56.63;98790.59;5090637;28;20055;-53
2021/07/30 09:19:13;;;;;;;18.05;11.38;;;;;;;25.49;58.84;98794.44;5087700;28;20479;-56
2021/07/30 09:21:38;;;;;;;15.32;12.18;;;;;;;25.45;56.91;98790.50;5089793;28;20031;-52
2021/07/30 09:24:12;;;;;;;18.95;12.10;;;;;;;25.53;56.91;98794.75;5090290;28;20036;-58
2021/07/30 09:26:47;;;;;;;16.90;12.02;;;;;;;25.53;56.51;98800.22;5090666;28;20028;-49
2021/07/30 09:29:16;;;;;;;;;;;;;;;25.79;56.05;98801.50;5090909;28;20039;-52
2021/07/30 09:31:53;;;;;;;13.55;9.70;;;;;;;25.62;56.11;98804.22;5072141;28;19973;-49
2021/07/30 09:34:23;;;;;;;15.95;10.70;;;;;;;25.63;56.01;98805.91;5090547;28;20545;-53
2021/07/30 09:36:59;;;;;;;15.57;10.82;;;;;;;25.80;55.65;98799.56;5091004;28;20083;-51
2021/07/30 09:39:34;;;;;;;15.15;11.55;;;;;;;25.93;55.61;98793.75;5090578;28;20104;-54
2021/07/30 09:42:07;;;;;;;20.17;12.70;;;;;;;26.19;55.19;98796.91;5090565;28;20059;-47
2021/07/30 09:44:57;;;;;;;16.90;12.32;;;;;;;26.56;55.02;98797.41;5071983;28;20126;-55
2021/07/30 09:47:29;;;;;;;14.77;12.77;;;;;;;26.55;54.29;98801.25;5090162;28;20078;-48
2021/07/30 09:49:54;;;;;;;18.08;12.98;;;;;;;26.68;54.50;98797.28;5090573;28;20024;-54
2021/07/30 09:52:23;;;;;;;20.83;13.70;;;;;;;26.90;54.56;98800.88;5090328;28;20054;-52
2021/07/30 09:55:01;;;;;;;21.45;14.40;;;;;;;27.12;53.86;98804.69;5089703;28;20510;-54
2021/07/30 09:57:31;;;;;;;17.08;13.55;;;;;;;27.26;52.68;98797.69;5090159;28;20078;-53
2021/07/30 09:59:59;;;;;;;14.38;11.90;;;;;;;27.41;51.81;98787.91;5089871;28;20487;-52
2021/07/30 10:02:35;;;;;;;16.83;12.68;;;;;;;27.82;51.04;98785.56;5089847;28;20039;-52
2021/07/30 10:05:03;;;;;;;17.35;12.32;;;;;;;28.06;49.25;98783.22;5090165;28;20078;-55
2021/07/30 10:07:30;;;;;;;14.23;11.32;;;;;;;28.30;48.47;98782.03;5090144;28;20036;-53
2021/07/30 10:12:25;;;;;;;15.88;11.45;;;;;;;28.48;46.98;98773.31;5090359;28;20498;-54
2021/07/30 10:14:51;;;;;;;15.90;10.38;;;;;;;28.47;46.51;98760.66;5080765;28;20032;-54
2021/07/30 10:17:30;;;;;;;14.65;10.38;;;;;;;28.55;46.80;98766.75;5080470;28;20409;-53
2021/07/30 10:20:02;;;;;;;14.82;10.27;;;;;;;28.50;46.85;98765.63;5075462;28;20032;-52
2021/07/30 10:23:00;;;;;;;13.57;9.75;;;;;;;28.65;47.12;98761.25;5094052;28;20046;-54
2021/07/30 10:25:38;;;;;;;12.68;9.55;;;;;;;28.59;46.58;98757.69;5093983;28;20032;-56
2021/07/30 10:28:20;;;;;;;12.02;9.10;;;;;;;28.79;46.54;98750.59;5093965;28;20077;-51
2021/07/30 10:31:02;;;;;;;12.02;8.45;;;;;;;28.90;46.15;98752.28;5093571;28;20028;-53
2021/07/30 10:33:30;;;;;;;11.20;8.75;;;;;;;28.84;45.02;98752.53;5093876;28;20036;-53
2021/07/30 10:36:00;;;;;;;10.45;7.65;;;;;;;28.72;44.88;98738.97;5093489;28;20062;-54
2021/07/30 10:38:26;;;;;;;10.73;8.25;;;;;;;28.60;44.13;98731.81;5093171;28;20066;-55
2021/07/30 10:41:11;;;;;;;9.15;7.22;;;;;;;28.98;44.22;98737.16;5092861;28;20043;-54
2021/07/30 10:43:49;;;;;;;8.27;6.22;;;;;;;29.13;43.07;98730.00;5093316;28;20375;-56
2021/07/30 10:46:16;;;;;;;7.72;6.93;;;;;;;29.05;42.29;98726.69;5092701;28;20077;-53
2021/07/30 10:48:42;;;;;;;10.82;8.02;;;;;;;29.05;42.16;98712.91;5092948;28;20032;-50
2021/07/30 10:51:23;;;;;;;9.45;8.02;;;;;;;29.36;42.82;98721.19;5093713;28;20375;-49
2021/07/30 10:53:53;;;;;;;14.18;8.77;;;;;;;29.41;42.20;98716.81;5092921;28;20032;-55
2021/07/30 10:56:18;;;;;;;8.38;7.22;;;;;;;29.45;41.59;98701.41;5092305;28;20028;-51
2021/07/30 10:58:43;;;;;;;9.52;7.38;;;;;;;29.54;41.62;98698.88;5092286;28;20107;-56
2021/07/30 11:01:14;;;;;;;11.00;8.50;;;;;;;29.84;42.56;98703.53;5092753;28;20032;-56
2021/07/30 11:03:49;;;;;;;11.23;6.32;;;;;;;30.17;40.36;98705.94;5093047;28;20055;-56
2021/07/30 11:06:35;;;;;;;7.45;6.75;;;;;;;30.28;38.38;98701.22;5054293;28;20055;-54
2021/07/30 11:09:04;;;;;;;7.38;6.53;;;;;;;30.53;38.14;98691.16;5062124;28;20035;-54
2021/07/30 11:11:37;;;;;;;7.35;6.55;;;;;;;30.68;38.31;98677.31;5073075;28;20044;-53
2021/07/30 11:14:24;;;;;;;7.50;6.18;;;;;;;30.98;38.44;98694.78;5058524;28;20020;-51
2021/07/30 11:16:53;;;;;;;9.90;6.85;;;;;;;30.81;37.44;98688.81;5092666;28;20048;-54
2021/07/30 11:19:24;;;;;;;7.57;6.55;;;;;;;30.72;38.16;98685.84;5092885;28;20051;-52
2021/07/30 11:21:51;;;;;;;7.78;6.65;;;;;;;30.47;38.30;98682.91;5093402;28;20038;-52